Time;durP1;ratioP1;P1;durP2;ratioP2;P2;SDS_P1;SDS_P2;PMS_P1;PMS_P2;Temp;Humidity;BMP_temperature;BMP_pressure;BME280_temperature;BME280_humidity;BME280_pressure;Samples;Min_cycle;Max_cycle;Signal;HPM_P1;HPM_P2
2022/04/26 03:36:07;;;;;;;9.25;4.07;;;10.70;99.90;;;10.79;96.08;100742.22;5164719;28;20042;-73
2022/04/26 03:38:43;;;;;;;11.55;5.20;;;10.70;99.90;;;10.80;96.36;100738.75;5164495;28;20061;-72
2022/04/26 03:41:16;;;;;;;10.10;4.38;;;10.70;99.90;;;10.79;96.43;100743.09;5164504;28;20054;-72
2022/04/26 03:43:48;;;;;;;8.32;4.05;;;10.70;99.90;;;10.80;96.62;100743.97;5164812;28;20054;-73
2022/04/26 03:46:20;;;;;;;8.85;4.82;;;10.70;99.90;;;10.78;96.67;100740.44;5166937;28;20353;-72
2022/04/26 03:48:52;;;;;;;9.90;5.18;;;10.70;99.90;;;10.77;96.91;100739.56;5163972;28;20408;-73
2022/04/26 03:51:24;;;;;;;8.82;4.75;;;10.70;99.90;;;10.79;96.98;100737.00;5164327;28;20068;-73
2022/04/26 03:53:57;;;;;;;8.40;4.20;;;10.70;99.90;;;10.80;97.15;100736.16;5164150;28;20080;-73
2022/04/26 03:56:29;;;;;;;10.00;4.70;;;10.70;99.90;;;10.78;97.05;100730.91;5163985;28;20050;-73
2022/04/26 03:59:01;;;;;;;10.68;4.10;;;10.70;99.90;;;10.77;97.60;100733.47;5164469;28;20072;-73
2022/04/26 04:01:33;;;;;;;11.82;4.88;;;10.70;99.90;;;10.77;97.77;100738.69;5164615;28;20510;-72
2022/04/26 04:04:05;;;;;;;9.27;4.55;;;10.70;99.90;;;10.78;97.83;100745.66;5167098;28;20157;-73
2022/04/26 04:06:37;;;;;;;10.25;5.25;;;10.70;99.90;;;10.77;97.98;100749.09;5164153;28;20488;-73
2022/04/26 04:09:11;;;;;;;9.32;4.18;;;10.70;99.90;;;10.78;98.14;100743.06;5164517;28;20050;-73
2022/04/26 04:11:43;;;;;;;13.15;4.97;;;10.70;99.90;;;10.79;98.18;100744.81;5163642;28;20055;-72
2022/04/26 04:14:15;;;;;;;9.93;5.05;;;10.70;99.90;;;10.77;98.51;100743.88;5164329;28;20060;-72
2022/04/26 04:16:47;;;;;;;11.57;4.80;;;10.70;99.90;;;10.77;98.52;100754.31;5164465;28;20054;-73
2022/04/26 04:19:18;;;;;;;11.20;5.18;;;10.70;99.90;;;10.78;98.61;100751.75;5164428;28;20509;-71
2022/04/26 04:21:52;;;;;;;12.02;5.78;;;10.70;99.90;;;10.75;98.61;100746.41;5164080;28;20133;-72
2022/04/26 04:24:25;;;;;;;11.77;5.05;;;10.70;99.90;;;10.76;98.74;100752.56;5166210;28;20054;-72
2022/04/26 04:26:57;;;;;;;11.18;5.18;;;10.80;99.90;;;10.76;98.60;100753.44;5164095;28;20048;-73
2022/04/26 04:29:29;;;;;;;12.30;6.10;;;10.80;99.90;;;10.80;98.67;100764.84;5164278;28;20517;-71
2022/04/26 04:32:01;;;;;;;11.55;5.35;;;10.80;99.90;;;10.82;98.64;100760.53;5229327;23;20054;-71
2022/04/26 04:34:33;;;;;;;12.65;5.30;;;10.80;99.90;;;10.85;98.46;100760.66;5157878;28;20058;-70
2022/04/26 04:37:05;;;;;;;12.48;5.75;;;10.80;99.90;;;10.84;98.57;100764.13;5159135;28;20046;-70
2022/04/26 04:39:39;;;;;;;12.52;5.70;;;10.80;99.90;;;10.82;98.69;100768.38;5163395;28;20046;-70
2022/04/26 04:42:13;;;;;;;13.18;5.63;;;10.80;99.90;;;10.83;98.67;100763.22;5163107;28;20116;-70
2022/04/26 04:44:45;;;;;;;16.02;6.03;;;10.80;99.90;;;10.84;98.70;100766.72;5163197;28;20065;-70
2022/04/26 04:47:17;;;;;;;13.30;5.40;;;10.80;99.90;;;10.88;98.65;100773.78;5163789;28;20133;-70
2022/04/26 04:49:48;;;;;;;12.32;5.97;;;10.80;99.90;;;10.87;98.82;100772.03;5163421;28;20056;-70
2022/04/26 04:52:20;;;;;;;11.68;5.35;;;10.80;99.90;;;10.88;98.78;100765.97;5154099;28;20056;-71
2022/04/26 04:54:54;;;;;;;14.90;5.68;;;10.80;99.90;;;10.90;98.81;100772.16;5158890;28;20046;-70
2022/04/26 04:57:26;;;;;;;11.95;5.82;;;10.80;99.90;;;10.93;99.00;100776.56;5163625;28;20479;-70
2022/04/26 05:00:01;;;;;;;10.40;5.40;;;10.80;99.90;;;10.96;99.02;100774.97;5166025;28;20054;-70
2022/04/26 05:02:33;;;;;;;11.38;5.68;;;10.90;99.90;;;10.98;98.79;100775.00;5166645;28;20410;-71
2022/04/26 05:05:06;;;;;;;9.55;4.43;;;10.90;99.90;;;10.99;98.56;100781.97;5167534;28;20832;-70
2022/04/26 05:07:38;;;;;;;10.32;5.50;;;10.90;99.90;;;10.99;98.36;100782.88;5167223;28;20055;-70
2022/04/26 05:10:11;;;;;;;10.27;5.10;;;10.90;99.90;;;11.01;98.27;100786.41;5166804;28;20046;-69
2022/04/26 05:12:43;;;;;;;10.55;5.10;;;10.90;99.90;;;11.05;98.21;100782.19;5167141;28;20407;-70
2022/04/26 05:15:15;;;;;;;8.52;4.53;;;10.90;99.90;;;11.10;98.27;100791.06;5167283;28;20433;-70
2022/04/26 05:17:47;;;;;;;10.20;5.70;;;11.00;99.90;;;11.14;98.34;100793.78;5167480;28;20386;-70
2022/04/26 05:20:19;;;;;;;8.40;4.68;;;11.00;99.90;;;11.18;97.70;100788.69;5167022;28;20410;-71
2022/04/26 05:25:43;;;;;;;8.05;4.00;;;11.10;99.90;;;11.29;97.67;100793.41;5166853;28;20100;-69
2022/04/26 05:28:15;;;;;;;8.43;4.13;;;11.20;99.90;;;11.32;97.57;100792.63;5167239;28;20080;-69
2022/04/26 05:30:47;;;;;;;8.05;4.65;;;11.20;99.90;;;11.38;97.22;100798.03;5166725;28;20054;-70
2022/04/26 05:33:20;;;;;;;9.95;4.30;;;11.20;99.90;;;11.46;97.20;100800.88;5166135;28;20050;-71
2022/04/26 05:35:52;;;;;;;7.75;3.65;;;11.30;99.90;;;11.49;96.90;100807.09;5166916;28;20042;-70
2022/04/26 05:38:24;;;;;;;8.13;4.80;;;11.40;99.90;;;11.52;96.69;100796.72;5166652;28;20400;-71
2022/04/26 05:40:57;;;;;;;8.20;3.70;;;11.40;99.90;;;11.54;96.63;100805.53;5166573;28;20050;-70
2022/04/26 05:43:29;;;;;;;8.43;4.15;;;11.40;99.90;;;11.50;96.11;100800.16;5166215;28;20050;-69
2022/04/26 05:46:01;;;;;;;8.38;4.15;;;11.40;99.90;;;11.46;95.91;100803.50;5166588;28;20047;-70
2022/04/26 05:48:33;;;;;;;9.82;4.18;;;11.30;99.90;;;11.45;95.68;100805.22;5166695;28;20129;-70
2022/04/26 05:51:05;;;;;;;9.27;4.05;;;11.30;99.90;;;11.41;95.53;100804.25;5166670;28;20480;-71
2022/04/26 05:53:37;;;;;;;7.95;3.75;;;11.30;99.90;;;11.38;95.49;100798.03;5166039;28;20050;-70
2022/04/26 05:56:12;;;;;;;9.80;4.68;;;11.30;99.90;;;11.41;95.37;100813.81;5165928;28;20053;-70
2022/04/26 05:58:44;;;;;;;9.57;4.60;;;11.30;99.90;;;11.43;95.60;100804.28;5166712;28;20484;-71
2022/04/26 06:01:16;;;;;;;10.02;4.65;;;11.30;99.90;;;11.45;95.47;100805.22;5166038;28;20060;-70
2022/04/26 06:03:48;;;;;;;13.13;5.35;;;11.30;99.90;;;11.45;95.32;100805.22;5166231;28;20054;-72
2022/04/26 06:06:20;;;;;;;9.88;4.80;;;11.30;99.90;;;11.44;95.35;100808.66;5166439;28;20484;-72
2022/04/26 06:08:52;;;;;;;13.18;4.97;;;11.30;99.90;;;11.46;95.52;100804.38;5166471;28;20479;-72
2022/04/26 06:11:25;;;;;;;10.00;5.63;;;11.30;99.90;;;11.53;95.59;100811.56;5165463;28;20407;-72
2022/04/26 06:13:57;;;;;;;12.38;6.18;;;11.40;99.90;;;11.60;96.09;100815.22;5166207;28;20162;-72
2022/04/26 06:16:29;;;;;;;15.95;6.50;;;11.50;99.90;;;11.63;95.99;100810.13;5166381;28;20046;-71
2022/04/26 06:19:02;;;;;;;15.60;6.40;;;11.50;99.90;;;11.66;96.01;100816.31;5165944;28;20058;-71
2022/04/26 06:21:34;;;;;;;15.02;6.53;;;11.50;99.90;;;11.72;95.73;100814.72;5165755;28;20101;-71
2022/04/26 06:24:07;;;;;;;15.68;7.00;;;11.60;99.90;;;11.69;95.45;100821.66;5166040;28;20478;-71
2022/04/26 06:26:40;;;;;;;15.65;6.90;;;11.60;99.90;;;11.66;95.76;100826.75;5165985;28;20058;-72
2022/04/26 06:29:12;;;;;;;16.55;7.32;;;11.60;99.90;;;11.68;95.43;100819.88;5165675;28;20050;-72
2022/04/26 06:31:44;;;;;;;15.35;7.18;;;11.60;99.90;;;11.69;95.46;100821.66;5165761;28;20047;-71
2022/04/26 06:34:16;;;;;;;16.60;7.05;;;11.60;99.90;;;11.71;95.17;100823.41;5155055;28;20082;-72
2022/04/26 06:36:48;;;;;;;16.63;7.13;;;11.60;99.90;;;11.65;95.35;100829.31;5145668;28;20043;-72
2022/04/26 06:39:20;;;;;;;15.90;7.47;;;11.60;99.90;;;11.60;94.97;100823.94;5145622;28;20427;-72
2022/04/26 06:41:54;;;;;;;17.17;7.15;;;11.50;99.90;;;11.61;95.16;100836.19;5145608;28;20664;-71
2022/04/26 06:44:26;;;;;;;13.45;6.78;;;11.50;99.90;;;11.62;94.71;100837.09;5145382;28;20051;-71
2022/04/26 06:46:58;;;;;;;14.40;6.55;;;11.50;99.90;;;11.58;94.44;100843.03;5145247;28;20042;-72
2022/04/26 06:49:30;;;;;;;13.27;6.55;;;11.50;99.90;;;11.55;94.21;100833.38;5145495;28;20046;-71
2022/04/26 06:52:02;;;;;;;13.70;6.50;;;11.50;99.90;;;11.56;94.43;100839.50;5144781;28;20057;-71
2022/04/26 06:54:34;;;;;;;15.20;6.28;;;11.50;99.90;;;11.59;94.26;100831.75;5145271;28;20137;-71
2022/04/26 06:57:08;;;;;;;14.02;5.43;;;11.50;99.90;;;11.72;94.42;100838.22;5145346;28;20492;-72
2022/04/26 06:59:41;;;;;;;12.73;5.57;;;11.60;99.90;;;11.88;94.28;100843.13;5145300;28;20078;-72
2022/04/26 07:02:12;;;;;;;11.15;5.65;;;11.70;99.90;;;12.03;93.68;100838.34;5144747;28;20051;-72
2022/04/26 07:04:44;;;;;;;10.77;5.43;;;11.80;99.90;;;12.16;93.28;100837.00;5145312;28;20054;-71
2022/04/26 07:07:16;;;;;;;14.18;5.38;;;11.90;99.90;;;12.19;92.42;100844.91;5145172;28;20057;-72
2022/04/26 07:09:49;;;;;;;11.55;5.55;;;12.00;99.90;;;12.20;91.59;100842.38;5145334;28;20051;-72
2022/04/26 07:12:22;;;;;;;11.90;6.35;;;12.00;99.90;;;12.20;91.67;100846.69;5144923;28;20411;-71
2022/04/26 07:14:54;;;;;;;12.10;5.78;;;12.00;99.90;;;12.17;91.34;100850.09;5149555;28;20061;-71
2022/04/26 07:17:26;;;;;;;10.65;4.93;;;12.00;99.90;;;12.26;91.21;100856.41;5163479;28;20133;-72
2022/04/26 07:20:00;;;;;;;10.10;4.38;;;12.10;99.90;;;12.42;90.01;100848.19;5154043;28;20130;-73
2022/04/26 07:22:32;;;;;;;14.80;6.18;;;12.20;99.90;;;12.55;88.44;100846.81;5156108;28;20130;-71
2022/04/26 07:25:05;;;;;;;19.50;7.80;;;12.40;99.90;;;12.64;88.12;100854.88;5165174;28;20054;-71
2022/04/26 07:27:40;;;;;;;18.92;8.25;;;12.50;99.90;;;12.57;87.67;100856.44;5165234;28;20086;-72
2022/04/26 07:30:13;;;;;;;22.10;9.20;;;12.60;99.90;;;12.50;87.90;100851.91;5165145;28;20137;-71
2022/04/26 07:35:34;;;;;;;24.38;10.98;;;12.50;99.90;;;12.29;88.73;100860.03;5164652;28;20050;-68
2022/04/26 07:38:07;;;;;;;25.75;11.32;;;12.40;99.90;;;12.28;89.36;100854.75;5164968;28;20072;-70
2022/04/26 07:40:39;;;;;;;28.13;12.75;;;12.30;99.90;;;12.33;89.87;100863.63;5164860;28;20376;-71
2022/04/26 07:43:13;;;;;;;27.33;11.27;;;12.30;99.90;;;12.32;90.06;100865.31;5164327;28;20051;-71
2022/04/26 07:45:46;;;;;;;30.13;12.90;;;12.30;99.90;;;12.35;90.31;100859.31;5164912;28;20061;-70
2022/04/26 07:48:18;;;;;;;38.22;15.85;;;12.30;99.90;;;12.37;90.68;100862.84;5164681;28;20054;-70
2022/04/26 07:50:51;;;;;;;43.58;17.48;;;12.40;99.90;;;12.27;90.19;100868.69;5164170;28;20061;-70
2022/04/26 07:53:25;;;;;;;39.70;15.95;;;12.30;99.90;;;12.17;90.51;100871.00;5162020;28;20054;-69
2022/04/26 07:55:57;;;;;;;39.50;15.63;;;12.20;99.90;;;12.10;90.68;100871.66;5158759;28;20062;-69
2022/04/26 07:58:30;;;;;;;35.50;15.07;;;12.10;99.90;;;12.07;90.94;100878.53;5162245;28;20046;-70
2022/04/26 08:01:03;;;;;;;32.88;14.05;;;12.10;99.90;;;12.05;90.90;100877.59;5161749;28;20077;-68
2022/04/26 08:03:36;;;;;;;33.65;13.88;;;12.10;99.90;;;12.03;90.41;100882.78;5164467;28;20546;-70
2022/04/26 08:06:08;;;;;;;36.78;14.23;;;12.00;99.90;;;12.00;90.20;100889.63;5158870;28;20053;-68
2022/04/26 08:08:40;;;;;;;39.65;15.20;;;12.00;99.90;;;11.97;90.36;100889.53;5157733;28;20049;-70
2022/04/26 08:11:13;;;;;;;35.60;13.85;;;11.90;99.90;;;11.92;90.37;100898.09;5163825;28;20054;-70
2022/04/26 08:13:46;;;;;;;35.45;14.52;;;11.90;99.90;;;11.87;89.77;100904.94;5162519;28;20050;-70
2022/04/26 08:16:18;;;;;;;31.17;12.57;;;11.90;99.90;;;11.85;89.93;100901.38;5164269;28;20043;-69
2022/04/26 08:18:50;;;;;;;28.15;12.25;;;11.80;99.90;;;11.90;90.00;100904.13;5161483;28;20047;-70
2022/04/26 08:21:23;;;;;;;36.13;14.77;;;11.90;99.90;;;11.99;89.73;100908.75;5155273;28;20422;-69
2022/04/26 08:29:35;;;;;;;29.27;12.02;;;12.00;99.90;;;12.16;89.43;100920.63;5164544;28;20061;-70
2022/04/26 08:32:07;;;;;;;35.15;14.52;;;12.10;99.90;;;12.08;89.29;100925.63;5163932;28;20505;-73
2022/04/26 08:34:39;;;;;;;37.30;12.98;;;12.10;99.90;;;12.08;89.06;100929.97;5167186;28;20093;-70
2022/04/26 08:37:12;;;;;;;30.25;11.85;;;12.10;99.90;;;12.08;88.79;100937.78;5166699;28;20068;-71
2022/04/26 08:39:44;;;;;;;33.92;14.40;;;12.10;99.90;;;12.14;88.81;100945.81;5168854;28;20054;-70
2022/04/26 08:42:16;;;;;;;34.28;13.00;;;12.10;99.90;;;12.16;88.51;100947.63;5168363;28;20081;-70
2022/04/26 08:44:49;;;;;;;31.98;12.80;;;12.10;99.90;;;12.12;87.96;100943.13;5168452;28;20054;-71
2022/04/26 08:53:01;;;;;;;34.50;13.93;;;12.10;99.90;;;11.97;87.77;100963.56;5168034;28;20049;-71
2022/04/26 08:55:33;;;;;;;33.00;13.73;;;12.00;99.90;;;11.89;87.73;100965.06;5168124;28;20054;-70
2022/04/26 08:58:06;;;;;;;37.05;14.15;;;12.00;99.90;;;11.89;87.97;100967.69;5168100;28;20053;-72
2022/04/26 09:00:41;;;;;;;34.20;13.48;;;11.90;99.90;;;11.92;88.23;100975.59;5168055;28;20050;-70
2022/04/26 09:03:13;;;;;;;27.55;11.52;;;11.90;99.90;;;11.89;87.48;100975.50;5167647;28;20059;-72
2022/04/26 09:06:05;;;;;;;28.88;12.90;;;11.90;99.90;;;11.92;87.77;100973.88;5167958;28;20133;-71
2022/04/26 09:08:37;;;;;;;27.73;11.50;;;11.90;99.90;;;12.02;87.27;100977.69;5167849;28;20089;-71
2022/04/26 09:11:27;;;;;;;33.33;13.75;;;12.00;99.90;;;12.06;86.85;100989.09;5167562;28;20047;-70
2022/04/26 09:13:59;;;;;;;30.13;12.05;;;12.00;99.90;;;12.12;86.48;100990.19;5167618;28;20055;-71
2022/04/26 09:16:32;;;;;;;30.38;11.93;;;12.00;99.90;;;12.14;85.87;100985.91;5167963;28;20049;-71
2022/04/26 09:19:06;;;;;;;24.73;10.35;;;12.00;99.90;;;12.14;85.47;100988.53;5167440;28;20089;-71
2022/04/26 09:21:54;;;;;;;30.25;12.00;;;12.10;99.90;;;12.17;85.07;100998.16;5167285;28;20051;-70
2022/04/26 09:24:26;;;;;;;31.83;12.48;;;12.10;99.90;;;12.16;85.11;100999.91;5167808;28;20459;-71
2022/04/26 09:26:58;;;;;;;31.27;12.07;;;12.10;99.90;;;12.16;84.77;101005.13;5167772;28;20487;-71
2022/04/26 09:29:30;;;;;;;25.90;11.55;;;12.10;99.90;;;12.14;84.29;101004.19;5167412;28;20062;-71
2022/04/26 09:32:04;;;;;;;29.88;12.80;;;12.10;99.90;;;12.13;83.97;101017.22;5167046;28;20053;-70
2022/04/26 09:34:38;;;;;;;28.90;11.77;;;12.10;99.90;;;12.19;84.24;101017.38;5167768;28;20058;-71
2022/04/26 09:37:12;;;;;;;29.08;11.73;;;12.10;99.90;;;12.28;83.74;101015.09;5167469;28;20050;-71
2022/04/26 09:40:05;;;;;;;26.42;11.43;;;12.20;99.90;;;12.36;83.64;101025.78;5167205;28;20050;-70
2022/04/26 09:42:37;;;;;;;26.70;11.73;;;12.20;99.90;;;12.49;83.54;101027.94;5167247;28;20065;-70
2022/04/26 09:45:13;;;;;;;28.92;13.70;;;12.30;99.90;;;12.60;82.85;101025.66;5166588;28;20393;-71
2022/04/26 09:47:46;;;;;;;29.60;12.60;;;12.40;99.90;;;12.68;82.70;101032.00;5167055;28;20471;-71
2022/04/26 09:50:18;;;;;;;27.02;11.80;;;12.50;99.90;;;12.77;82.12;101035.75;5167061;28;20058;-70
2022/04/26 09:52:50;;;;;;;28.90;11.68;;;12.50;99.90;;;12.80;81.20;101034.09;5166857;28;20133;-71
2022/04/26 09:55:22;;;;;;;29.98;13.00;;;12.60;99.90;;;12.75;80.98;101026.97;5167513;28;20056;-72
2022/04/26 09:57:55;;;;;;;27.25;12.10;;;12.60;99.90;;;12.82;81.20;101032.41;5167230;28;20042;-72
2022/04/26 10:00:28;;;;;;;28.25;12.15;;;12.70;99.90;;;12.93;81.11;101031.00;5167009;28;20056;-72
2022/04/26 10:03:08;;;;;;;22.27;10.02;;;12.70;99.90;;;12.93;80.27;101031.00;5166440;28;20046;-73
2022/04/26 10:05:42;;;;;;;32.67;12.65;;;12.80;99.90;;;12.85;80.05;101036.00;5167142;28;20050;-70
2022/04/26 10:08:16;;;;;;;28.85;13.20;;;12.70;99.90;;;12.78;79.77;101041.91;5166756;28;20402;-72
2022/04/26 10:10:48;;;;;;;31.67;12.65;;;12.70;99.90;;;12.72;79.77;101042.59;5166779;28;20061;-71
2022/04/26 10:13:35;;;;;;;22.95;11.35;;;12.70;99.90;;;12.73;80.11;101048.72;5165965;28;20116;-70
2022/04/26 10:16:10;;;;;;;27.15;11.95;;;12.70;99.90;;;12.67;80.31;101044.19;5166981;28;20466;-71
2022/04/26 10:18:47;;;;;;;26.38;12.05;;;12.60;99.90;;;12.60;79.58;101047.47;5166753;28;20046;-71
2022/04/26 10:21:49;;;;;;;29.85;12.63;;;12.60;99.90;;;12.61;79.87;101054.47;5166383;28;20077;-72
2022/04/26 10:24:23;;;;;;;29.60;11.52;;;12.60;99.90;;;12.57;80.15;101060.41;5166762;28;20056;-72
2022/04/26 10:27:20;;;;;;;30.52;12.23;;;12.50;99.90;;;12.49;80.37;101060.19;5166173;28;20042;-71
2022/04/26 10:29:53;;;;;;;25.75;11.15;;;12.50;99.90;;;12.53;80.77;101066.41;5164809;28;20054;-70
2022/04/26 10:35:32;;;;;;;30.02;11.68;;;12.60;99.90;;;12.86;80.26;101055.19;5103082;29;20059;-72
2022/04/26 10:38:15;;;;;;;26.55;10.98;;;12.70;99.90;;;12.92;79.87;101058.00;5105620;29;20091;-70
2022/04/26 10:41:08;;;;;;;31.38;11.73;;;12.70;99.90;;;12.93;79.30;101054.53;5105616;29;20074;-71
2022/04/26 10:43:42;;;;;;;26.02;11.07;;;12.80;99.90;;;13.01;79.27;101061.75;5093375;29;20055;-72
2022/04/26 10:46:15;;;;;;;30.60;11.85;;;12.80;99.90;;;13.09;79.06;101050.63;5104020;29;20087;-71
2022/04/26 10:48:47;;;;;;;24.92;11.43;;;12.90;99.90;;;13.08;78.15;101065.44;5103536;29;20039;-71
2022/04/26 10:51:36;;;;;;;30.45;11.90;;;12.90;99.90;;;13.20;78.94;101063.22;5102504;29;20063;-71
2022/04/26 10:54:08;;;;;;;29.73;12.18;;;13.00;99.90;;;13.37;78.12;101070.66;5105598;29;20047;-71
2022/04/26 10:56:40;;;;;;;29.27;12.77;;;13.20;99.90;;;13.57;78.24;101059.88;5105391;29;20143;-71
2022/04/26 10:59:13;;;;;;;25.58;11.55;;;13.30;99.90;;;13.66;77.26;101063.59;5105957;29;20052;-71
2022/04/26 11:01:46;;;;;;;30.10;13.20;;;13.40;99.90;;;13.81;76.46;101059.63;5104845;29;20056;-70
2022/04/26 11:04:18;;;;;;;31.73;12.93;;;13.50;99.90;;;13.94;74.64;101068.69;5105419;29;20500;-71
2022/04/26 11:06:52;;;;;;;32.97;13.75;;;13.70;99.90;;;13.97;73.83;101065.28;5104984;29;20501;-70
2022/04/26 11:09:24;;;;;;;30.48;14.63;;;13.70;99.90;;;13.96;73.71;101074.00;5105197;29;20408;-71
2022/04/26 11:11:57;;;;;;;33.88;13.80;;;13.80;99.90;;;13.96;73.84;101066.13;5104899;29;20481;-71
2022/04/26 11:14:29;;;;;;;29.35;13.18;;;13.80;99.90;;;14.07;74.41;101075.13;5105305;29;20613;-70
2022/04/26 11:17:04;;;;;;;30.55;12.35;;;13.80;99.90;;;14.22;73.75;101077.25;5104969;29;20058;-70
2022/04/26 11:19:40;;;;;;;27.45;12.10;;;13.90;99.90;;;14.39;72.03;101070.66;5105072;29;20059;-71
2022/04/26 11:22:13;;;;;;;28.38;12.50;;;14.00;99.90;;;14.71;71.51;101076.69;5104383;29;20051;-71
2022/04/26 11:30:35;;;;;;;36.88;16.23;;;14.70;99.90;;;15.46;69.20;101079.16;5104136;29;20107;-68
2022/04/26 11:33:10;;;;;;;36.28;16.52;;;15.00;99.90;;;15.91;67.72;101080.91;5103995;29;20055;-68
2022/04/26 11:35:43;;;;;;;40.28;16.83;;;15.40;99.90;;;16.10;65.36;101083.81;5104681;29;20103;-71
2022/04/26 11:38:18;;;;;;;36.70;15.15;;;15.70;99.90;;;16.10;65.25;101079.44;5104692;29;20134;-69
2022/04/26 11:40:52;;;;;;;32.63;14.70;;;15.80;99.90;;;16.00;64.86;101083.66;5104519;29;20051;-68
2022/04/26 11:43:27;;;;;;;31.88;14.48;;;15.90;99.90;;;16.08;64.45;101085.53;5104377;29;20512;-68
2022/04/26 11:46:00;;;;;;;32.85;14.90;;;15.90;99.50;;;16.19;64.45;101083.97;5104344;29;20059;-70
2022/04/26 11:48:34;;;;;;;33.10;13.80;;;16.00;99.60;;;16.37;64.30;101084.28;5104407;29;20074;-70
2022/04/26 11:51:06;;;;;;;32.42;15.30;;;16.10;99.70;;;16.70;62.55;101083.94;5104540;29;20056;-70
2022/04/26 11:53:40;;;;;;;31.33;14.18;;;16.30;98.80;;;16.77;61.45;101088.44;5104014;29;20143;-69
2022/04/26 11:56:15;;;;;;;26.77;13.05;;;16.40;98.00;;;16.70;61.32;101090.97;5104457;29;20047;-66
2022/04/26 11:58:47;;;;;;;30.80;14.48;;;16.40;97.60;;;16.42;60.18;101093.13;5104418;29;20492;-71
2022/04/26 12:01:21;;;;;;;31.38;14.25;;;16.30;96.30;;;15.99;60.91;101091.53;5104138;29;20052;-71
2022/04/26 12:03:54;;;;;;;27.40;13.02;;;16.00;96.30;;;15.70;61.79;101078.75;5104259;29;20087;-71
2022/04/26 12:06:29;;;;;;;31.58;13.15;;;15.80;96.90;;;15.55;62.77;101094.19;5104632;29;20051;-70
2022/04/26 12:09:05;;;;;;;29.95;13.73;;;15.60;97.50;;;15.50;63.52;101090.59;5102550;29;20044;-70
2022/04/26 12:11:38;;;;;;;27.30;12.88;;;15.50;98.30;;;15.48;63.99;101084.44;5103456;29;20054;-72
2022/04/26 12:14:12;;;;;;;27.75;12.88;;;15.30;98.80;;;15.44;64.24;101086.09;5104535;29;20062;-71
2022/04/26 12:16:47;;;;;;;26.98;12.48;;;15.30;99.10;;;15.44;64.42;101080.84;5096959;29;20485;-72
2022/04/26 12:19:19;;;;;;;;;;;15.30;99.20;;;15.38;63.74;101074.56;5104432;29;20051;-72
2022/04/26 12:21:54;;;;;;;24.88;11.60;;;15.20;98.80;;;15.26;63.65;101085.75;5103680;29;19929;-72
2022/04/26 12:24:30;;;;;;;26.40;14.23;;;15.10;98.70;;;15.19;64.32;101083.81;5104395;29;20412;-73
2022/04/26 12:27:04;;;;;;;23.40;13.07;;;15.10;99.20;;;15.10;65.16;101094.16;5104025;29;20389;-71
2022/04/26 12:29:43;;;;;;;28.70;13.65;;;15.00;99.80;;;14.97;65.98;101087.75;5104513;29;20051;-72
2022/04/26 12:32:17;;;;;;;30.10;13.57;;;14.90;99.90;;;14.85;66.51;101093.63;5100857;29;20142;-72
2022/04/26 12:34:51;;;;;;;26.70;13.55;;;14.80;99.90;;;14.74;67.25;101095.13;5094107;29;20052;-72
2022/04/26 12:37:26;;;;;;;29.83;14.40;;;14.70;99.90;;;14.60;67.14;101096.53;5089806;29;20103;-72
2022/04/26 12:40:06;;;;;;;;;;;14.60;99.90;;;14.53;67.55;101092.88;5085124;29;20052;-71
2022/04/26 12:42:39;;;;;;;32.22;14.27;;;14.50;99.90;;;14.45;67.89;101107.53;5104162;29;19929;-71
2022/04/26 12:45:16;;;;;;;29.60;14.38;;;14.40;99.90;;;14.37;67.60;101136.19;5100041;29;20059;-72
2022/04/26 12:50:56;;;;;;;7.95;4.03;;;14.30;99.80;;;13.93;63.75;101157.75;5092052;29;20139;-72
2022/04/26 12:53:31;;;;;;;6.88;3.35;;;14.00;98.50;;;13.64;64.96;101155.25;5084028;29;20054;-73
2022/04/26 12:56:10;;;;;;;6.22;3.22;;;13.80;98.90;;;13.26;63.49;101157.63;5093658;29;20398;-70
2022/04/26 12:58:44;;;;;;;4.45;2.70;;;13.50;98.00;;;12.94;65.56;101146.16;5093645;29;20044;-71
2022/04/26 13:01:17;;;;;;;6.32;3.00;;;13.20;99.10;;;12.76;69.30;101142.97;5102964;29;20052;-71
2022/04/26 13:03:49;;;;;;;8.80;3.45;;;13.00;99.90;;;12.67;70.08;101140.06;5102532;29;20058;-71
2022/04/26 13:06:21;;;;;;;6.65;3.20;;;12.80;99.90;;;12.64;73.40;101142.56;5103467;29;20063;-70
2022/04/26 13:08:53;;;;;;;5.88;3.45;;;12.70;99.90;;;12.56;75.33;101144.06;5103059;29;20059;-68
2022/04/26 13:11:27;;;;;;;8.73;3.92;;;12.70;99.90;;;12.50;75.51;101147.34;5095992;29;20048;-68
2022/04/26 13:13:58;;;;;;;9.23;3.63;;;12.50;99.90;;;12.46;78.47;101142.88;5089164;29;20056;-69
2022/04/26 13:16:31;;;;;;;11.73;3.75;;;12.50;99.90;;;12.33;82.40;101136.38;5097352;29;20135;-70
2022/04/26 13:19:03;;;;;;;9.50;4.68;;;12.40;99.90;;;12.26;83.05;101130.84;5103189;29;20413;-70
2022/04/26 13:21:35;;;;;;;9.93;4.57;;;12.40;99.90;;;12.18;84.85;101131.50;5105958;29;20416;-71
2022/04/26 13:24:07;;;;;;;12.18;5.18;;;12.40;99.90;;;12.08;85.24;101134.66;5107217;29;20107;-70
2022/04/26 13:26:41;;;;;;;11.80;4.93;;;12.30;99.90;;;11.98;86.41;101132.53;5106683;29;20500;-70
2022/04/26 13:29:13;;;;;;;10.73;5.10;;;12.20;99.90;;;11.97;87.46;101140.34;5106646;29;20047;-70
2022/04/26 13:31:45;;;;;;;11.00;4.18;;;12.20;99.90;;;11.95;88.46;101153.34;5103869;29;20044;-70
2022/04/26 13:34:17;;;;;;;7.60;3.72;;;12.10;99.90;;;11.89;89.06;101154.03;5102297;29;20048;-69
2022/04/26 13:36:49;;;;;;;7.47;3.88;;;12.10;99.90;;;11.79;88.29;101151.00;5105993;29;20062;-70
2022/04/26 13:39:21;;;;;;;12.23;4.22;;;12.00;99.90;;;11.81;89.39;101152.88;5106694;29;20058;-70
2022/04/26 13:41:54;;;;;;;12.82;4.45;;;12.00;99.90;;;11.88;89.55;101148.75;5105313;29;20052;-69
2022/04/26 13:44:26;;;;;;;11.13;4.25;;;12.00;99.90;;;11.94;89.84;101147.25;5107185;29;20139;-69
2022/04/26 13:46:58;;;;;;;7.30;3.67;;;12.00;99.90;;;11.99;90.28;101150.00;5106967;29;20054;-70
2022/04/26 13:49:31;;;;;;;9.15;3.80;;;12.00;99.90;;;12.09;91.20;101159.94;5106724;29;20111;-69
2022/04/26 13:52:04;;;;;;;8.75;3.75;;;12.10;99.90;;;12.13;90.80;101161.84;5105926;29;20083;-72
2022/04/26 13:54:37;;;;;;;8.05;4.05;;;12.10;99.90;;;12.16;90.47;101174.09;5106530;29;20058;-71
2022/04/26 13:57:11;;;;;;;6.18;3.17;;;12.10;99.90;;;12.14;90.66;101181.00;5106574;29;20048;-70
2022/04/26 13:59:44;;;;;;;7.85;3.95;;;12.10;99.90;;;12.14;91.56;101166.22;5106525;29;20048;-70
2022/04/26 14:02:16;;;;;;;7.38;3.60;;;12.10;99.90;;;12.22;91.80;101175.22;5106162;29;20055;-71
2022/04/26 14:04:49;;;;;;;7.93;3.42;;;12.10;99.90;;;12.31;92.32;101178.97;5106706;29;20084;-70
2022/04/26 14:07:21;;;;;;;7.15;3.50;;;12.20;99.90;;;12.39;92.69;101177.53;5106825;29;20056;-71
2022/04/26 14:09:53;;;;;;;8.45;3.83;;;12.30;99.90;;;12.45;92.95;101169.84;5104325;29;20047;-70
2022/04/26 14:12:26;;;;;;;9.25;4.20;;;12.30;99.90;;;12.52;93.10;101168.31;5105497;29;20056;-71
2022/04/26 14:23:26;;;;;;;8.85;4.20;;;12.30;99.90;;;12.54;92.94;101138.78;5105504;29;20075;-70
2022/04/26 14:25:59;;;;;;;6.07;3.42;;;12.40;99.90;;;12.59;92.91;101134.59;5102975;29;20051;-70
2022/04/26 14:28:32;;;;;;;7.40;3.25;;;12.40;99.90;;;12.64;92.58;101140.84;5105194;29;20054;-70
2022/04/26 14:31:04;;;;;;;7.40;3.55;;;12.50;99.90;;;12.65;91.96;101140.03;5105427;29;20091;-70
2022/04/26 14:33:36;;;;;;;8.88;4.03;;;12.40;99.90;;;12.64;91.43;101142.56;5103389;29;20067;-71
2022/04/26 14:36:08;;;;;;;7.78;3.20;;;12.50;99.90;;;12.70;91.31;101142.75;5106120;29;20523;-71
2022/04/26 14:38:41;;;;;;;8.25;3.88;;;12.50;99.90;;;12.70;90.98;101143.66;5106139;29;20515;-70
2022/04/26 14:41:13;;;;;;;7.80;3.95;;;12.50;99.90;;;12.74;91.13;101156.00;5105987;29;20054;-70
2022/04/26 14:43:46;;;;;;;7.32;4.13;;;12.60;99.90;;;12.79;91.08;101153.53;5105368;29;20057;-70